sensor_id;sensor_type;location;lat;lon;timestamp;temperature;humidity
13591;DHT22;6866;50.778;7.206;2022-07-23T00:00:02;20.70;90.10
13591;DHT22;6866;50.778;7.206;2022-07-23T00:02:28;20.20;90.70
13591;DHT22;6866;50.778;7.206;2022-07-23T00:04:53;20.10;90.10
13591;DHT22;6866;50.778;7.206;2022-07-23T00:07:19;20.30;90.00
13591;DHT22;6866;50.778;7.206;2022-07-23T00:09:45;20.90;90.10
13591;DHT22;6866;50.778;7.206;2022-07-23T00:12:10;20.20;89.90
13591;DHT22;6866;50.778;7.206;2022-07-23T00:14:36;20.20;90.00
13591;DHT22;6866;50.778;7.206;2022-07-23T00:17:01;20.10;90.00
13591;DHT22;6866;50.778;7.206;2022-07-23T00:19:27;20.20;90.30
13591;DHT22;6866;50.778;7.206;2022-07-23T00:21:54;19.90;90.20
13591;DHT22;6866;50.778;7.206;2022-07-23T00:24:20;20.10;90.30
13591;DHT22;6866;50.778;7.206;2022-07-23T00:26:45;19.90;90.40
13591;DHT22;6866;50.778;7.206;2022-07-23T00:29:11;20.10;90.40
13591;DHT22;6866;50.778;7.206;2022-07-23T00:31:36;20.00;90.60
13591;DHT22;6866;50.778;7.206;2022-07-23T00:34:02;20.10;90.60
13591;DHT22;6866;50.778;7.206;2022-07-23T00:36:27;20.00;90.40
13591;DHT22;6866;50.778;7.206;2022-07-23T00:38:53;20.10;90.60
13591;DHT22;6866;50.778;7.206;2022-07-23T00:41:19;19.90;90.70
13591;DHT22;6866;50.778;7.206;2022-07-23T00:43:45;20.10;90.80
13591;DHT22;6866;50.778;7.206;2022-07-23T00:46:10;20.00;90.90
13591;DHT22;6866;50.778;7.206;2022-07-23T00:48:36;20.00;90.60
13591;DHT22;6866;50.778;7.206;2022-07-23T00:51:02;20.10;91.00
13591;DHT22;6866;50.778;7.206;2022-07-23T00:53:28;20.20;91.00
13591;DHT22;6866;50.778;7.206;2022-07-23T00:55:54;20.30;90.90
13591;DHT22;6866;50.778;7.206;2022-07-23T00:58:20;19.90;90.80
13591;DHT22;6866;50.778;7.206;2022-07-23T01:03:21;20.00;91.10
13591;DHT22;6866;50.778;7.206;2022-07-23T01:05:47;19.80;90.90
13591;DHT22;6866;50.778;7.206;2022-07-23T01:08:13;19.80;91.10
13591;DHT22;6866;50.778;7.206;2022-07-23T01:10:38;19.70;91.20
13591;DHT22;6866;50.778;7.206;2022-07-23T01:13:09;19.70;91.30
13591;DHT22;6866;50.778;7.206;2022-07-23T01:15:36;19.80;91.50
13591;DHT22;6866;50.778;7.206;2022-07-23T01:18:03;20.00;91.60
13591;DHT22;6866;50.778;7.206;2022-07-23T01:20:30;19.80;91.40
13591;DHT22;6866;50.778;7.206;2022-07-23T01:22:56;19.60;91.50
13591;DHT22;6866;50.778;7.206;2022-07-23T01:25:22;19.50;91.60
13591;DHT22;6866;50.778;7.206;2022-07-23T01:27:48;19.80;92.00
13591;DHT22;6866;50.778;7.206;2022-07-23T01:30:14;19.80;91.90
13591;DHT22;6866;50.778;7.206;2022-07-23T01:32:40;19.70;91.80
13591;DHT22;6866;50.778;7.206;2022-07-23T01:35:07;19.80;91.70
13591;DHT22;6866;50.778;7.206;2022-07-23T01:37:33;19.60;91.70
13591;DHT22;6866;50.778;7.206;2022-07-23T01:39:58;19.70;91.80
13591;DHT22;6866;50.778;7.206;2022-07-23T01:42:24;19.70;92.00
13591;DHT22;6866;50.778;7.206;2022-07-23T01:44:50;19.50;91.90
13591;DHT22;6866;50.778;7.206;2022-07-23T01:47:16;19.70;92.20
13591;DHT22;6866;50.778;7.206;2022-07-23T01:49:41;19.90;92.40
13591;DHT22;6866;50.778;7.206;2022-07-23T01:52:07;19.50;92.40
13591;DHT22;6866;50.778;7.206;2022-07-23T01:54:37;19.40;92.40
13591;DHT22;6866;50.778;7.206;2022-07-23T01:57:04;19.40;92.60
13591;DHT22;6866;50.778;7.206;2022-07-23T01:59:29;19.80;92.50
13591;DHT22;6866;50.778;7.206;2022-07-23T02:01:55;19.60;92.30
13591;DHT22;6866;50.778;7.206;2022-07-23T02:04:22;19.80;91.90
13591;DHT22;6866;50.778;7.206;2022-07-23T02:06:48;19.80;91.80
13591;DHT22;6866;50.778;7.206;2022-07-23T02:09:14;19.70;91.70
13591;DHT22;6866;50.778;7.206;2022-07-23T02:11:40;19.70;91.70
13591;DHT22;6866;50.778;7.206;2022-07-23T02:14:05;19.60;91.50
13591;DHT22;6866;50.778;7.206;2022-07-23T02:16:31;19.50;91.40
13591;DHT22;6866;50.778;7.206;2022-07-23T02:18:57;19.60;91.70
13591;DHT22;6866;50.778;7.206;2022-07-23T02:21:22;19.70;91.50
13591;DHT22;6866;50.778;7.206;2022-07-23T02:23:48;19.60;91.70
13591;DHT22;6866;50.778;7.206;2022-07-23T02:26:14;19.70;91.60
13591;DHT22;6866;50.778;7.206;2022-07-23T02:28:40;19.60;91.60
13591;DHT22;6866;50.778;7.206;2022-07-23T02:31:05;19.50;91.70
13591;DHT22;6866;50.778;7.206;2022-07-23T02:33:32;19.70;92.00
13591;DHT22;6866;50.778;7.206;2022-07-23T02:35:58;19.70;91.70
13591;DHT22;6866;50.778;7.206;2022-07-23T02:38:23;19.40;91.80
13591;DHT22;6866;50.778;7.206;2022-07-23T02:40:49;19.30;92.20
13591;DHT22;6866;50.778;7.206;2022-07-23T02:43:15;19.50;92.20
13591;DHT22;6866;50.778;7.206;2022-07-23T02:45:40;19.30;92.00
13591;DHT22;6866;50.778;7.206;2022-07-23T02:48:06;19.50;92.10
13591;DHT22;6866;50.778;7.206;2022-07-23T02:50:31;19.30;92.30
13591;DHT22;6866;50.778;7.206;2022-07-23T02:52:57;19.40;92.30
13591;DHT22;6866;50.778;7.206;2022-07-23T02:55:22;19.60;91.90
13591;DHT22;6866;50.778;7.206;2022-07-23T02:57:48;19.50;92.20
13591;DHT22;6866;50.778;7.206;2022-07-23T03:00:13;19.40;92.40
13591;DHT22;6866;50.778;7.206;2022-07-23T03:02:39;19.60;92.20
13591;DHT22;6866;50.778;7.206;2022-07-23T03:05:05;19.30;92.20
13591;DHT22;6866;50.778;7.206;2022-07-23T03:07:30;19.30;92.20
13591;DHT22;6866;50.778;7.206;2022-07-23T03:09:56;19.30;92.30
13591;DHT22;6866;50.778;7.206;2022-07-23T03:12:22;19.20;92.60
13591;DHT22;6866;50.778;7.206;2022-07-23T03:14:47;19.10;92.50
13591;DHT22;6866;50.778;7.206;2022-07-23T03:17:13;19.40;92.80
13591;DHT22;6866;50.778;7.206;2022-07-23T03:19:38;19.20;92.90
13591;DHT22;6866;50.778;7.206;2022-07-23T03:22:04;19.00;92.80
13591;DHT22;6866;50.778;7.206;2022-07-23T03:24:30;19.00;93.20
13591;DHT22;6866;50.778;7.206;2022-07-23T03:27:14;19.10;93.30
13591;DHT22;6866;50.778;7.206;2022-07-23T03:29:40;19.00;93.40
13591;DHT22;6866;50.778;7.206;2022-07-23T03:32:06;18.90;93.50
13591;DHT22;6866;50.778;7.206;2022-07-23T03:34:32;18.80;93.70
13591;DHT22;6866;50.778;7.206;2022-07-23T03:36:58;19.10;93.60
13591;DHT22;6866;50.778;7.206;2022-07-23T03:39:23;18.90;93.70
13591;DHT22;6866;50.778;7.206;2022-07-23T03:41:49;18.80;93.60
13591;DHT22;6866;50.778;7.206;2022-07-23T03:44:14;18.70;93.70
13591;DHT22;6866;50.778;7.206;2022-07-23T03:46:40;18.80;94.00
13591;DHT22;6866;50.778;7.206;2022-07-23T03:49:05;18.70;94.00
13591;DHT22;6866;50.778;7.206;2022-07-23T03:51:31;18.80;94.20
13591;DHT22;6866;50.778;7.206;2022-07-23T03:53:57;18.60;94.10
13591;DHT22;6866;50.778;7.206;2022-07-23T03:56:23;18.80;94.20
13591;DHT22;6866;50.778;7.206;2022-07-23T03:58:48;18.50;94.40
13591;DHT22;6866;50.778;7.206;2022-07-23T04:01:14;18.80;94.40
13591;DHT22;6866;50.778;7.206;2022-07-23T04:03:39;18.60;94.40
13591;DHT22;6866;50.778;7.206;2022-07-23T04:06:05;18.70;94.50
13591;DHT22;6866;50.778;7.206;2022-07-23T04:08:31;18.80;94.80
13591;DHT22;6866;50.778;7.206;2022-07-23T04:10:57;18.70;94.60
13591;DHT22;6866;50.778;7.206;2022-07-23T04:13:22;18.60;94.70
13591;DHT22;6866;50.778;7.206;2022-07-23T04:15:48;18.60;94.70
13591;DHT22;6866;50.778;7.206;2022-07-23T04:18:14;18.60;94.90
13591;DHT22;6866;50.778;7.206;2022-07-23T04:20:42;18.60;95.00
13591;DHT22;6866;50.778;7.206;2022-07-23T04:23:08;18.60;95.10
13591;DHT22;6866;50.778;7.206;2022-07-23T04:25:35;18.70;95.30
13591;DHT22;6866;50.778;7.206;2022-07-23T04:28:00;18.80;95.30
13591;DHT22;6866;50.778;7.206;2022-07-23T04:30:26;18.70;95.40
13591;DHT22;6866;50.778;7.206;2022-07-23T04:32:51;18.80;95.20
13591;DHT22;6866;50.778;7.206;2022-07-23T04:35:17;18.90;95.10
13591;DHT22;6866;50.778;7.206;2022-07-23T04:37:42;18.80;95.30
13591;DHT22;6866;50.778;7.206;2022-07-23T04:40:09;18.90;95.50
13591;DHT22;6866;50.778;7.206;2022-07-23T04:42:34;18.80;95.50
13591;DHT22;6866;50.778;7.206;2022-07-23T04:45:00;18.80;95.40
13591;DHT22;6866;50.778;7.206;2022-07-23T04:47:25;19.00;95.30
13591;DHT22;6866;50.778;7.206;2022-07-23T04:49:51;19.00;95.40
13591;DHT22;6866;50.778;7.206;2022-07-23T04:52:16;19.10;95.30
13591;DHT22;6866;50.778;7.206;2022-07-23T04:54:42;19.10;95.40
13591;DHT22;6866;50.778;7.206;2022-07-23T04:57:07;18.90;95.40
13591;DHT22;6866;50.778;7.206;2022-07-23T04:59:33;18.80;95.60
13591;DHT22;6866;50.778;7.206;2022-07-23T05:01:58;18.80;95.70
13591;DHT22;6866;50.778;7.206;2022-07-23T05:04:24;19.10;95.70
13591;DHT22;6866;50.778;7.206;2022-07-23T05:06:49;18.80;95.70
13591;DHT22;6866;50.778;7.206;2022-07-23T05:09:15;19.10;95.70
13591;DHT22;6866;50.778;7.206;2022-07-23T05:11:40;19.00;95.50
13591;DHT22;6866;50.778;7.206;2022-07-23T05:14:06;18.90;95.40
13591;DHT22;6866;50.778;7.206;2022-07-23T05:16:31;19.10;95.30
13591;DHT22;6866;50.778;7.206;2022-07-23T05:18:57;19.40;95.20
13591;DHT22;6866;50.778;7.206;2022-07-23T05:21:22;19.80;94.50
13591;DHT22;6866;50.778;7.206;2022-07-23T05:23:48;20.40;93.30
13591;DHT22;6866;50.778;7.206;2022-07-23T05:26:13;21.40;92.00
13591;DHT22;6866;50.778;7.206;2022-07-23T05:28:39;21.50;90.70
13591;DHT22;6866;50.778;7.206;2022-07-23T05:31:05;21.30;91.20
13591;DHT22;6866;50.778;7.206;2022-07-23T05:33:31;20.90;91.30
13591;DHT22;6866;50.778;7.206;2022-07-23T05:36:03;20.70;91.70
13591;DHT22;6866;50.778;7.206;2022-07-23T05:38:29;20.80;91.40
13591;DHT22;6866;50.778;7.206;2022-07-23T05:40:55;21.70;90.60
13591;DHT22;6866;50.778;7.206;2022-07-23T05:43:20;21.40;90.60
13591;DHT22;6866;50.778;7.206;2022-07-23T05:45:46;21.40;90.90
13591;DHT22;6866;50.778;7.206;2022-07-23T05:48:12;21.70;90.00
13591;DHT22;6866;50.778;7.206;2022-07-23T05:50:37;22.60;87.40
13591;DHT22;6866;50.778;7.206;2022-07-23T05:53:03;23.40;85.90
13591;DHT22;6866;50.778;7.206;2022-07-23T05:55:29;23.30;83.60
13591;DHT22;6866;50.778;7.206;2022-07-23T05:57:57;22.80;85.50
13591;DHT22;6866;50.778;7.206;2022-07-23T06:00:23;22.60;86.50
13591;DHT22;6866;50.778;7.206;2022-07-23T06:02:49;25.40;81.40
13591;DHT22;6866;50.778;7.206;2022-07-23T06:05:14;25.10;78.70
13591;DHT22;6866;50.778;7.206;2022-07-23T06:07:40;25.10;79.30
13591;DHT22;6866;50.778;7.206;2022-07-23T06:10:06;24.70;79.60
13591;DHT22;6866;50.778;7.206;2022-07-23T06:12:32;23.60;81.90
13591;DHT22;6866;50.778;7.206;2022-07-23T06:14:57;22.70;84.40
13591;DHT22;6866;50.778;7.206;2022-07-23T06:17:23;22.00;86.90
13591;DHT22;6866;50.778;7.206;2022-07-23T06:19:49;22.20;87.70
13591;DHT22;6866;50.778;7.206;2022-07-23T06:22:14;22.40;87.10
13591;DHT22;6866;50.778;7.206;2022-07-23T06:24:40;23.40;85.10
13591;DHT22;6866;50.778;7.206;2022-07-23T06:27:05;24.10;82.80
13591;DHT22;6866;50.778;7.206;2022-07-23T06:29:31;25.80;78.00
13591;DHT22;6866;50.778;7.206;2022-07-23T06:31:56;28.00;78.10
13591;DHT22;6866;50.778;7.206;2022-07-23T06:34:22;29.30;74.80
13591;DHT22;6866;50.778;7.206;2022-07-23T06:36:47;29.40;73.60
13591;DHT22;6866;50.778;7.206;2022-07-23T06:39:13;29.70;72.90
13591;DHT22;6866;50.778;7.206;2022-07-23T06:41:38;29.40;72.40
13591;DHT22;6866;50.778;7.206;2022-07-23T06:44:04;29.90;71.60
13591;DHT22;6866;50.778;7.206;2022-07-23T06:46:30;29.00;71.70
13591;DHT22;6866;50.778;7.206;2022-07-23T06:48:55;29.00;72.00
13591;DHT22;6866;50.778;7.206;2022-07-23T06:51:21;30.60;71.00
13591;DHT22;6866;50.778;7.206;2022-07-23T06:53:46;30.80;69.90
13591;DHT22;6866;50.778;7.206;2022-07-23T06:56:12;31.40;71.80
13591;DHT22;6866;50.778;7.206;2022-07-23T06:58:37;30.50;74.90
13591;DHT22;6866;50.778;7.206;2022-07-23T07:01:03;31.20;73.20
13591;DHT22;6866;50.778;7.206;2022-07-23T07:03:29;32.00;68.30
13591;DHT22;6866;50.778;7.206;2022-07-23T07:05:55;31.50;68.40
13591;DHT22;6866;50.778;7.206;2022-07-23T07:08:23;31.90;74.90
13591;DHT22;6866;50.778;7.206;2022-07-23T07:10:48;32.10;66.50
13591;DHT22;6866;50.778;7.206;2022-07-23T07:13:14;32.20;67.00
13591;DHT22;6866;50.778;7.206;2022-07-23T07:15:42;32.00;66.90
13591;DHT22;6866;50.778;7.206;2022-07-23T07:18:08;32.50;66.30
13591;DHT22;6866;50.778;7.206;2022-07-23T07:20:33;32.30;67.30
13591;DHT22;6866;50.778;7.206;2022-07-23T07:22:59;32.10;66.40
13591;DHT22;6866;50.778;7.206;2022-07-23T07:25:25;31.20;67.50
13591;DHT22;6866;50.778;7.206;2022-07-23T07:27:50;31.00;70.00
13591;DHT22;6866;50.778;7.206;2022-07-23T07:30:16;32.40;70.50
13591;DHT22;6866;50.778;7.206;2022-07-23T07:32:42;32.60;71.40
13591;DHT22;6866;50.778;7.206;2022-07-23T07:35:08;33.00;68.20
13591;DHT22;6866;50.778;7.206;2022-07-23T07:37:34;31.40;66.90
13591;DHT22;6866;50.778;7.206;2022-07-23T07:39:59;31.70;70.80
13591;DHT22;6866;50.778;7.206;2022-07-23T07:42:25;32.20;68.80
13591;DHT22;6866;50.778;7.206;2022-07-23T07:44:51;32.70;61.00
13591;DHT22;6866;50.778;7.206;2022-07-23T07:47:16;32.50;59.50
13591;DHT22;6866;50.778;7.206;2022-07-23T07:49:42;32.20;58.80
13591;DHT22;6866;50.778;7.206;2022-07-23T07:52:08;30.90;60.60
13591;DHT22;6866;50.778;7.206;2022-07-23T07:54:34;31.10;61.40
13591;DHT22;6866;50.778;7.206;2022-07-23T07:56:59;31.90;60.50
13591;DHT22;6866;50.778;7.206;2022-07-23T07:59:25;32.90;59.30
13591;DHT22;6866;50.778;7.206;2022-07-23T08:01:51;32.10;58.40
13591;DHT22;6866;50.778;7.206;2022-07-23T08:04:17;32.60;58.90
13591;DHT22;6866;50.778;7.206;2022-07-23T08:06:42;32.00;58.50
13591;DHT22;6866;50.778;7.206;2022-07-23T08:09:08;32.40;59.20
13591;DHT22;6866;50.778;7.206;2022-07-23T08:11:33;32.40;58.30
13591;DHT22;6866;50.778;7.206;2022-07-23T08:13:59;32.30;58.00
13591;DHT22;6866;50.778;7.206;2022-07-23T08:16:24;32.80;58.10
13591;DHT22;6866;50.778;7.206;2022-07-23T08:18:50;32.70;58.10
13591;DHT22;6866;50.778;7.206;2022-07-23T08:21:15;30.70;59.90
13591;DHT22;6866;50.778;7.206;2022-07-23T08:23:41;32.20;59.70
13591;DHT22;6866;50.778;7.206;2022-07-23T08:26:06;32.50;59.30
13591;DHT22;6866;50.778;7.206;2022-07-23T08:28:32;33.20;58.10
13591;DHT22;6866;50.778;7.206;2022-07-23T08:30:58;32.40;57.30
13591;DHT22;6866;50.778;7.206;2022-07-23T08:33:24;31.80;58.50
13591;DHT22;6866;50.778;7.206;2022-07-23T08:35:51;31.80;58.50
13591;DHT22;6866;50.778;7.206;2022-07-23T08:38:19;32.30;58.70
13591;DHT22;6866;50.778;7.206;2022-07-23T08:40:51;32.30;58.10
13591;DHT22;6866;50.778;7.206;2022-07-23T08:43:21;33.10;57.80
13591;DHT22;6866;50.778;7.206;2022-07-23T08:45:48;32.80;58.00
13591;DHT22;6866;50.778;7.206;2022-07-23T08:48:19;32.20;58.10
13591;DHT22;6866;50.778;7.206;2022-07-23T08:50:47;32.10;58.90
13591;DHT22;6866;50.778;7.206;2022-07-23T08:53:14;32.60;58.70
13591;DHT22;6866;50.778;7.206;2022-07-23T08:55:40;32.10;58.70
13591;DHT22;6866;50.778;7.206;2022-07-23T08:58:08;32.30;58.80
13591;DHT22;6866;50.778;7.206;2022-07-23T09:00:33;32.30;58.60
13591;DHT22;6866;50.778;7.206;2022-07-23T09:02:59;30.70;60.60
13591;DHT22;6866;50.778;7.206;2022-07-23T09:05:24;31.10;61.60
13591;DHT22;6866;50.778;7.206;2022-07-23T09:08:09;30.10;61.70
13591;DHT22;6866;50.778;7.206;2022-07-23T09:13:38;31.50;61.40
13591;DHT22;6866;50.778;7.206;2022-07-23T09:16:11;31.30;60.80
13591;DHT22;6866;50.778;7.206;2022-07-23T09:18:40;30.80;61.10
13591;DHT22;6866;50.778;7.206;2022-07-23T09:21:07;29.80;63.00
13591;DHT22;6866;50.778;7.206;2022-07-23T09:23:36;29.70;64.20
13591;DHT22;6866;50.778;7.206;2022-07-23T09:26:02;30.20;63.00
13591;DHT22;6866;50.778;7.206;2022-07-23T09:29:15;31.00;62.30
13591;DHT22;6866;50.778;7.206;2022-07-23T09:31:49;30.50;61.80
13591;DHT22;6866;50.778;7.206;2022-07-23T09:36:50;29.30;63.90
13591;DHT22;6866;50.778;7.206;2022-07-23T09:39:31;29.40;64.70
13591;DHT22;6866;50.778;7.206;2022-07-23T09:41:58;29.80;63.70
13591;DHT22;6866;50.778;7.206;2022-07-23T09:44:40;30.10;63.80
13591;DHT22;6866;50.778;7.206;2022-07-23T09:47:07;30.50;62.50
13591;DHT22;6866;50.778;7.206;2022-07-23T09:49:32;30.30;62.90
13591;DHT22;6866;50.778;7.206;2022-07-23T09:51:58;30.00;63.30
13591;DHT22;6866;50.778;7.206;2022-07-23T09:54:26;30.00;63.70
13591;DHT22;6866;50.778;7.206;2022-07-23T09:56:55;30.20;64.10
13591;DHT22;6866;50.778;7.206;2022-07-23T09:59:29;30.10;64.10
13591;DHT22;6866;50.778;7.206;2022-07-23T10:01:57;29.30;64.10
13591;DHT22;6866;50.778;7.206;2022-07-23T10:04:25;29.50;64.00
13591;DHT22;6866;50.778;7.206;2022-07-23T10:06:53;29.40;62.90
13591;DHT22;6866;50.778;7.206;2022-07-23T10:09:32;29.90;63.80
13591;DHT22;6866;50.778;7.206;2022-07-23T10:12:03;30.10;62.10
13591;DHT22;6866;50.778;7.206;2022-07-23T10:14:42;30.60;61.40
13591;DHT22;6866;50.778;7.206;2022-07-23T10:17:08;30.10;63.20
13591;DHT22;6866;50.778;7.206;2022-07-23T10:19:34;30.20;62.60
13591;DHT22;6866;50.778;7.206;2022-07-23T10:22:03;29.60;62.50
13591;DHT22;6866;50.778;7.206;2022-07-23T10:24:52;29.20;64.10
13591;DHT22;6866;50.778;7.206;2022-07-23T10:30:29;30.10;62.70
13591;DHT22;6866;50.778;7.206;2022-07-23T10:33:17;30.00;63.80
13591;DHT22;6866;50.778;7.206;2022-07-23T10:35:56;28.90;63.40
13591;DHT22;6866;50.778;7.206;2022-07-23T10:38:25;28.80;64.50
13591;DHT22;6866;50.778;7.206;2022-07-23T10:41:00;28.60;63.10
13591;DHT22;6866;50.778;7.206;2022-07-23T10:43:26;28.80;63.90
13591;DHT22;6866;50.778;7.206;2022-07-23T10:45:53;29.20;64.50
13591;DHT22;6866;50.778;7.206;2022-07-23T10:48:23;29.60;64.00
13591;DHT22;6866;50.778;7.206;2022-07-23T10:51:14;29.50;62.90
13591;DHT22;6866;50.778;7.206;2022-07-23T10:53:55;30.00;63.00
13591;DHT22;6866;50.778;7.206;2022-07-23T10:59:20;30.00;61.60
13591;DHT22;6866;50.778;7.206;2022-07-23T11:01:47;29.20;62.50
13591;DHT22;6866;50.778;7.206;2022-07-23T11:04:12;29.00;62.30
13591;DHT22;6866;50.778;7.206;2022-07-23T11:09:41;29.40;63.50
13591;DHT22;6866;50.778;7.206;2022-07-23T11:17:22;29.80;61.50
13591;DHT22;6866;50.778;7.206;2022-07-23T11:22:46;29.60;60.30
13591;DHT22;6866;50.778;7.206;2022-07-23T11:27:48;29.70;61.10
13591;DHT22;6866;50.778;7.206;2022-07-23T11:32:53;29.30;61.90
13591;DHT22;6866;50.778;7.206;2022-07-23T11:35:20;29.70;63.20
13591;DHT22;6866;50.778;7.206;2022-07-23T11:37:47;29.30;63.70
13591;DHT22;6866;50.778;7.206;2022-07-23T11:40:16;28.50;62.80
13591;DHT22;6866;50.778;7.206;2022-07-23T11:42:56;28.80;62.50
13591;DHT22;6866;50.778;7.206;2022-07-23T11:45:23;28.90;63.30
13591;DHT22;6866;50.778;7.206;2022-07-23T11:47:49;28.50;63.20
13591;DHT22;6866;50.778;7.206;2022-07-23T11:50:15;29.20;63.10
13591;DHT22;6866;50.778;7.206;2022-07-23T11:52:40;29.10;63.30
13591;DHT22;6866;50.778;7.206;2022-07-23T11:55:09;29.20;61.10
13591;DHT22;6866;50.778;7.206;2022-07-23T11:57:37;29.10;62.50
13591;DHT22;6866;50.778;7.206;2022-07-23T12:00:09;29.00;61.10
13591;DHT22;6866;50.778;7.206;2022-07-23T12:02:37;29.10;60.60
13591;DHT22;6866;50.778;7.206;2022-07-23T12:05:04;29.10;61.00
13591;DHT22;6866;50.778;7.206;2022-07-23T12:09:59;29.40;61.70
13591;DHT22;6866;50.778;7.206;2022-07-23T12:12:25;29.30;61.20
13591;DHT22;6866;50.778;7.206;2022-07-23T12:14:55;29.20;60.70
13591;DHT22;6866;50.778;7.206;2022-07-23T12:17:21;29.40;61.70
13591;DHT22;6866;50.778;7.206;2022-07-23T12:19:52;29.40;60.60
13591;DHT22;6866;50.778;7.206;2022-07-23T12:22:17;29.00;60.10
13591;DHT22;6866;50.778;7.206;2022-07-23T12:24:57;29.20;61.40
13591;DHT22;6866;50.778;7.206;2022-07-23T12:27:24;29.70;60.80
13591;DHT22;6866;50.778;7.206;2022-07-23T12:29:49;29.70;59.50
13591;DHT22;6866;50.778;7.206;2022-07-23T12:32:21;29.70;59.70
13591;DHT22;6866;50.778;7.206;2022-07-23T12:34:49;29.80;60.00
13591;DHT22;6866;50.778;7.206;2022-07-23T12:37:35;29.40;58.20
13591;DHT22;6866;50.778;7.206;2022-07-23T12:40:27;29.80;59.20
13591;DHT22;6866;50.778;7.206;2022-07-23T12:43:05;29.30;58.90
13591;DHT22;6866;50.778;7.206;2022-07-23T12:45:46;29.30;58.50
13591;DHT22;6866;50.778;7.206;2022-07-23T12:53:30;29.50;58.90
13591;DHT22;6866;50.778;7.206;2022-07-23T13:01:08;29.70;58.40
13591;DHT22;6866;50.778;7.206;2022-07-23T13:03:39;29.90;58.10
13591;DHT22;6866;50.778;7.206;2022-07-23T13:06:08;30.20;58.40
13591;DHT22;6866;50.778;7.206;2022-07-23T13:08:36;29.70;58.20
13591;DHT22;6866;50.778;7.206;2022-07-23T13:11:04;29.50;59.10
13591;DHT22;6866;50.778;7.206;2022-07-23T13:13:32;29.60;59.50
13591;DHT22;6866;50.778;7.206;2022-07-23T13:15:58;29.90;58.80
13591;DHT22;6866;50.778;7.206;2022-07-23T13:18:25;29.60;60.00
13591;DHT22;6866;50.778;7.206;2022-07-23T13:20:51;29.60;59.70
13591;DHT22;6866;50.778;7.206;2022-07-23T13:23:17;29.70;60.10
13591;DHT22;6866;50.778;7.206;2022-07-23T13:25:43;29.50;59.70
13591;DHT22;6866;50.778;7.206;2022-07-23T13:28:09;29.40;59.40
13591;DHT22;6866;50.778;7.206;2022-07-23T13:30:34;29.80;60.20
13591;DHT22;6866;50.778;7.206;2022-07-23T13:33:01;29.60;60.10
13591;DHT22;6866;50.778;7.206;2022-07-23T13:35:27;29.50;60.10
13591;DHT22;6866;50.778;7.206;2022-07-23T13:37:52;29.50;59.50
13591;DHT22;6866;50.778;7.206;2022-07-23T13:40:18;29.60;60.50
13591;DHT22;6866;50.778;7.206;2022-07-23T13:42:43;29.30;60.30
13591;DHT22;6866;50.778;7.206;2022-07-23T13:45:09;29.00;61.00
13591;DHT22;6866;50.778;7.206;2022-07-23T13:47:34;29.10;61.20
13591;DHT22;6866;50.778;7.206;2022-07-23T13:50:00;29.50;61.00
13591;DHT22;6866;50.778;7.206;2022-07-23T13:52:25;29.30;61.00
13591;DHT22;6866;50.778;7.206;2022-07-23T13:54:51;29.00;61.20
13591;DHT22;6866;50.778;7.206;2022-07-23T13:57:16;29.60;60.30
13591;DHT22;6866;50.778;7.206;2022-07-23T13:59:42;29.60;60.00
13591;DHT22;6866;50.778;7.206;2022-07-23T14:02:08;29.90;60.10
13591;DHT22;6866;50.778;7.206;2022-07-23T14:04:33;30.00;59.40
13591;DHT22;6866;50.778;7.206;2022-07-23T14:06:59;29.70;59.40
13591;DHT22;6866;50.778;7.206;2022-07-23T14:09:25;29.60;60.20
13591;DHT22;6866;50.778;7.206;2022-07-23T14:11:51;29.70;59.70
13591;DHT22;6866;50.778;7.206;2022-07-23T14:14:17;29.00;59.90
13591;DHT22;6866;50.778;7.206;2022-07-23T14:16:43;29.30;60.20
13591;DHT22;6866;50.778;7.206;2022-07-23T14:19:09;29.50;60.70
13591;DHT22;6866;50.778;7.206;2022-07-23T14:21:34;29.10;60.40
13591;DHT22;6866;50.778;7.206;2022-07-23T14:24:00;29.20;60.90
13591;DHT22;6866;50.778;7.206;2022-07-23T14:26:25;29.10;60.30
13591;DHT22;6866;50.778;7.206;2022-07-23T14:28:51;29.50;60.80
13591;DHT22;6866;50.778;7.206;2022-07-23T14:31:16;29.10;60.80
13591;DHT22;6866;50.778;7.206;2022-07-23T14:33:42;28.80;60.90
13591;DHT22;6866;50.778;7.206;2022-07-23T14:36:07;29.10;60.80
13591;DHT22;6866;50.778;7.206;2022-07-23T14:38:33;29.20;61.10
13591;DHT22;6866;50.778;7.206;2022-07-23T14:40:58;29.20;61.20
13591;DHT22;6866;50.778;7.206;2022-07-23T14:43:24;29.20;61.70
13591;DHT22;6866;50.778;7.206;2022-07-23T14:45:49;29.20;61.30
13591;DHT22;6866;50.778;7.206;2022-07-23T14:48:15;29.20;61.90
13591;DHT22;6866;50.778;7.206;2022-07-23T14:50:40;28.90;62.40
13591;DHT22;6866;50.778;7.206;2022-07-23T14:53:06;28.80;61.30
13591;DHT22;6866;50.778;7.206;2022-07-23T14:55:32;29.10;61.80
13591;DHT22;6866;50.778;7.206;2022-07-23T14:57:58;28.90;61.30
13591;DHT22;6866;50.778;7.206;2022-07-23T15:00:24;28.70;62.10
13591;DHT22;6866;50.778;7.206;2022-07-23T15:02:50;28.40;62.00
13591;DHT22;6866;50.778;7.206;2022-07-23T15:05:15;28.50;61.70
13591;DHT22;6866;50.778;7.206;2022-07-23T15:07:41;28.50;63.10
13591;DHT22;6866;50.778;7.206;2022-07-23T15:10:07;28.30;62.80
13591;DHT22;6866;50.778;7.206;2022-07-23T15:12:33;28.50;62.90
13591;DHT22;6866;50.778;7.206;2022-07-23T15:14:58;28.60;62.80
13591;DHT22;6866;50.778;7.206;2022-07-23T15:17:24;28.60;62.60
13591;DHT22;6866;50.778;7.206;2022-07-23T15:19:50;28.80;62.30
13591;DHT22;6866;50.778;7.206;2022-07-23T15:22:16;28.90;62.50
13591;DHT22;6866;50.778;7.206;2022-07-23T15:24:42;28.80;61.90
13591;DHT22;6866;50.778;7.206;2022-07-23T15:27:07;28.70;61.40
13591;DHT22;6866;50.778;7.206;2022-07-23T15:29:33;28.70;61.70
13591;DHT22;6866;50.778;7.206;2022-07-23T15:31:58;28.80;61.50
13591;DHT22;6866;50.778;7.206;2022-07-23T15:34:25;29.00;61.10
13591;DHT22;6866;50.778;7.206;2022-07-23T15:36:50;28.90;62.10
13591;DHT22;6866;50.778;7.206;2022-07-23T15:39:16;28.30;62.30
13591;DHT22;6866;50.778;7.206;2022-07-23T15:41:41;28.40;61.90
13591;DHT22;6866;50.778;7.206;2022-07-23T15:44:07;28.30;62.00
13591;DHT22;6866;50.778;7.206;2022-07-23T15:46:32;28.30;62.30
13591;DHT22;6866;50.778;7.206;2022-07-23T15:48:58;28.20;62.00
13591;DHT22;6866;50.778;7.206;2022-07-23T15:51:24;28.60;63.10
13591;DHT22;6866;50.778;7.206;2022-07-23T15:53:49;28.20;62.00
13591;DHT22;6866;50.778;7.206;2022-07-23T15:56:15;28.10;62.10
13591;DHT22;6866;50.778;7.206;2022-07-23T15:58:40;28.40;62.50
13591;DHT22;6866;50.778;7.206;2022-07-23T16:01:06;28.10;62.30
13591;DHT22;6866;50.778;7.206;2022-07-23T16:03:34;27.90;62.00
13591;DHT22;6866;50.778;7.206;2022-07-23T16:06:00;28.10;62.80
13591;DHT22;6866;50.778;7.206;2022-07-23T16:08:26;27.80;62.40
13591;DHT22;6866;50.778;7.206;2022-07-23T16:10:52;28.20;63.10
13591;DHT22;6866;50.778;7.206;2022-07-23T16:13:17;28.20;62.50
13591;DHT22;6866;50.778;7.206;2022-07-23T16:15:43;28.20;63.00
13591;DHT22;6866;50.778;7.206;2022-07-23T16:18:09;27.90;63.10
13591;DHT22;6866;50.778;7.206;2022-07-23T16:20:37;28.10;62.90
13591;DHT22;6866;50.778;7.206;2022-07-23T16:23:03;28.00;62.70
13591;DHT22;6866;50.778;7.206;2022-07-23T16:25:29;27.80;62.60